createdAt,value
2022-11-16T00:00:41.150Z,143.68
2022-11-16T00:02:48.415Z,142.89
2022-11-16T00:04:56.809Z,141.82
2022-11-16T00:07:03.526Z,140.64
2022-11-16T00:09:27.321Z,141.04
2022-11-16T00:11:33.145Z,141.15
2022-11-16T00:13:41.540Z,138.73
2022-11-16T00:15:58.676Z,143.13
2022-11-16T00:20:24.076Z,141.55
2022-11-16T00:22:30.779Z,141.14
2022-11-16T00:24:37.305Z,140.74
2022-11-16T00:26:43.388Z,137.06
2022-11-16T00:28:50.967Z,144.74
2022-11-16T00:31:02.675Z,146.86
2022-11-16T00:33:10.924Z,144.88
2022-11-16T00:35:17.608Z,140.96
2022-11-16T00:37:26.024Z,140.67
2022-11-16T00:39:31.895Z,136.93
2022-11-16T00:41:38.438Z,135.55
2022-11-16T00:43:44.342Z,134.97
2022-11-16T00:45:50.495Z,133.05
2022-11-16T00:48:00.467Z,134.14
2022-11-16T00:50:08.806Z,133.34
2022-11-16T00:52:14.514Z,130.83
2022-11-16T00:54:23.636Z,125.33
2022-11-16T00:56:29.578Z,128.17
2022-11-16T00:58:35.724Z,128.10
2022-11-16T01:00:47.487Z,126.86
2022-11-16T01:02:54.753Z,125.06
2022-11-16T01:05:00.812Z,120.16
2022-11-16T01:07:09.268Z,121.22
2022-11-16T01:09:15.054Z,121.00
2022-11-16T01:11:36.052Z,125.19
2022-11-16T01:13:42.635Z,125.66
2022-11-16T01:15:51.626Z,124.42
2022-11-16T01:18:00.084Z,128.20
2022-11-16T01:20:11.286Z,126.08
2022-11-16T01:22:17.033Z,120.61
2022-11-16T01:24:22.983Z,118.47
2022-11-16T01:26:32.490Z,119.24
2022-11-16T01:28:38.509Z,120.86
2022-11-16T01:30:51.510Z,117.67
2022-11-16T01:32:58.128Z,117.96
2022-11-16T01:35:07.173Z,120.22
2022-11-16T01:37:13.872Z,123.92
2022-11-16T01:39:22.307Z,121.39
2022-11-16T01:41:35.451Z,117.27
2022-11-16T01:44:01.902Z,118.95
2022-11-16T01:46:14.558Z,124.04
2022-11-16T01:48:29.028Z,122.49
2022-11-16T01:50:35.471Z,121.73
2022-11-16T01:52:50.636Z,120.25
2022-11-16T01:54:56.154Z,122.92
2022-11-16T01:57:14.604Z,122.70
2022-11-16T01:59:29.647Z,121.22
2022-11-16T02:01:36.492Z,119.07
2022-11-16T02:03:44.463Z,123.12
2022-11-16T02:06:17.939Z,121.22
2022-11-16T02:09:04.862Z,121.85
2022-11-16T02:11:48.262Z,119.04
2022-11-16T02:14:13.908Z,124.80
2022-11-16T02:16:38.814Z,123.41
2022-11-16T02:19:02.895Z,124.62
2022-11-16T02:21:32.902Z,125.50
2022-11-16T02:24:22.838Z,122.04
2022-11-16T02:27:14.408Z,124.96
2022-11-16T02:29:35.646Z,115.96
2022-11-16T02:31:52.568Z,118.07
2022-11-16T02:34:03.704Z,115.31
2022-11-16T02:36:18.627Z,114.70
2022-11-16T02:38:32.828Z,117.52
2022-11-16T02:40:47.963Z,115.57
2022-11-16T02:43:10.281Z,116.16
2022-11-16T02:45:27.416Z,115.14
2022-11-16T02:47:40.025Z,115.02
2022-11-16T02:49:58.611Z,116.69
2022-11-16T02:52:07.231Z,114.91
2022-11-16T02:54:19.641Z,115.07
2022-11-16T02:56:31.521Z,116.69
2022-11-16T02:58:37.300Z,116.31
2022-11-16T03:00:59.228Z,118.15
2022-11-16T03:03:28.700Z,116.17
2022-11-16T03:05:43.546Z,112.59
2022-11-16T03:08:12.048Z,107.60
2022-11-16T03:10:35.489Z,108.09
2022-11-16T03:12:46.200Z,110.17
2022-11-16T03:14:59.745Z,101.63
2022-11-16T03:17:20.817Z,100.90
